Time;durP1;ratioP1;P1;durP2;ratioP2;P2;SDS_P1;SDS_P2;PMS_P1;PMS_P2;Temp;Humidity;BMP_temperature;BMP_pressure;BME280_temperature;BME280_humidity;BME280_pressure;Samples;Min_cycle;Max_cycle;Signal;HPM_P1;HPM_P2
2021/10/09 00:01:26;;;;;;;12.60;6.25;;;;;;;13.86;100.00;101714.66;4980938;28;20031;-68
2021/10/09 00:03:52;;;;;;;17.60;7.03;;;;;;;13.87;100.00;101721.78;4979528;28;20077;-70
2021/10/09 00:06:17;;;;;;;16.65;6.80;;;;;;;13.87;100.00;101721.78;4982278;28;20042;-69
2021/10/09 00:08:43;;;;;;;12.95;7.00;;;;;;;13.85;100.00;101718.41;4980885;28;20096;-66
2021/10/09 00:11:16;;;;;;;13.57;6.68;;;;;;;13.81;100.00;101712.50;4978673;28;20072;-67
2021/10/09 00:13:42;;;;;;;15.38;7.63;;;;;;;13.83;100.00;101720.44;4980930;28;20049;-67
2021/10/09 00:16:08;;;;;;;13.57;6.97;;;;;;;13.78;100.00;101712.81;4994907;28;20038;-71
2021/10/09 00:18:33;;;;;;;11.80;5.85;;;;;;;13.76;100.00;101719.41;4978824;28;20451;-68
2021/10/09 00:20:59;;;;;;;10.02;5.80;;;;;;;13.79;100.00;101724.50;4981671;28;20066;-69
2021/10/09 00:23:24;;;;;;;14.55;6.05;;;;;;;13.76;100.00;101709.47;4983308;28;20129;-68
2021/10/09 00:25:50;;;;;;;13.10;5.90;;;;;;;13.71;100.00;101701.03;4981284;28;20585;-70
2021/10/09 00:28:16;;;;;;;10.98;5.93;;;;;;;13.79;100.00;101719.09;4995089;28;20108;-68
2021/10/09 00:30:41;;;;;;;11.63;5.38;;;;;;;13.78;100.00;101699.31;4951909;28;20034;-67
2021/10/09 00:33:07;;;;;;;14.77;6.60;;;;;;;13.79;100.00;101721.81;4979889;28;20034;-67
2021/10/09 00:35:32;;;;;;;11.75;5.25;;;;;;;13.79;100.00;101716.41;4978873;28;20034;-69
2021/10/09 00:37:58;;;;;;;18.55;7.38;;;;;;;13.76;100.00;101719.41;4982230;28;20032;-67
2021/10/09 00:40:24;;;;;;;12.32;4.95;;;;;;;13.75;100.00;101723.16;4996551;28;20384;-69
2021/10/09 00:42:50;;;;;;;8.10;5.93;;;;;;;13.75;100.00;101723.16;4981482;28;20121;-69
2021/10/09 00:45:16;;;;;;;7.40;4.28;;;;;;;13.76;100.00;101720.28;4983997;28;20436;-67
2021/10/09 00:47:44;;;;;;;13.38;6.05;;;;;;;13.77;100.00;101726.53;4968977;28;20034;-69
2021/10/09 00:50:18;;;;;;;11.32;5.32;;;;;;;13.73;100.00;101719.78;4966575;28;20112;-71
2021/10/09 00:52:44;;;;;;;10.60;5.47;;;;;;;13.76;100.00;101722.13;4983563;28;20101;-68
2021/10/09 00:55:10;;;;;;;11.00;5.90;;;;;;;13.69;100.00;101711.19;4983147;28;20053;-69
2021/10/09 00:57:37;;;;;;;14.27;6.13;;;;;;;13.69;100.00;101707.63;4966393;28;20479;-70
2021/10/09 01:00:04;;;;;;;13.90;7.18;;;;;;;13.72;100.00;101704.59;4981065;28;20496;-70
2021/10/09 01:02:30;;;;;;;11.50;5.25;;;;;;;13.72;100.00;101710.00;4980300;28;20033;-69
2021/10/09 01:04:56;;;;;;;9.70;4.93;;;;;;;13.73;100.00;101700.84;4980350;28;20034;-70
2021/10/09 01:07:22;;;;;;;11.93;6.60;;;;;;;13.72;100.00;101710.00;4978764;28;20076;-71
2021/10/09 01:09:47;;;;;;;14.13;5.22;;;;;;;13.70;100.00;101698.50;4950174;28;20038;-69
2021/10/09 01:12:14;;;;;;;8.10;4.93;;;;;;;13.71;100.00;101703.75;4983546;28;20038;-71
2021/10/09 01:14:40;;;;;;;10.20;5.28;;;;;;;13.71;100.00;101694.81;4997551;28;20034;-67
2021/10/09 01:17:11;;;;;;;11.85;5.22;;;;;;;13.74;100.00;101713.38;4980047;28;20034;-70
2021/10/09 01:19:37;;;;;;;12.10;5.25;;;;;;;13.74;100.00;101699.84;4978733;28;20045;-70
2021/10/09 01:22:03;;;;;;;8.55;4.70;;;;;;;13.75;100.00;101707.78;4982649;28;20035;-70
2021/10/09 01:24:29;;;;;;;10.10;5.07;;;;;;;13.69;100.00;101710.34;4963059;28;20432;-68
2021/10/09 01:26:54;;;;;;;7.00;4.47;;;;;;;13.67;100.00;101702.38;4964438;28;20050;-68
2021/10/09 01:29:20;;;;;;;6.15;3.95;;;;;;;13.73;100.00;101709.78;4983803;28;20030;-70
2021/10/09 01:31:46;;;;;;;9.68;4.38;;;;;;;13.75;100.00;101718.59;4989692;28;20023;-70
2021/10/09 01:34:11;;;;;;;8.35;3.95;;;;;;;13.78;100.00;101726.34;4980822;28;20061;-68
2021/10/09 01:36:39;;;;;;;10.55;4.00;;;;;;;13.78;100.00;101717.41;4981324;28;20089;-69
2021/10/09 01:39:06;;;;;;;8.73;4.18;;;;;;;13.80;100.00;101718.06;4981905;28;20089;-69
2021/10/09 01:41:39;;;;;;;6.97;4.30;;;;;;;13.78;100.00;101712.00;4980302;28;20049;-69
2021/10/09 01:44:33;;;;;;;;;;;;;;;13.80;100.00;101715.38;4979690;28;20045;-68
2021/10/09 01:47:01;;;;;;;9.32;4.35;;;;;;;13.79;100.00;101702.88;4979490;28;19921;-68
2021/10/09 01:49:27;;;;;;;8.20;3.53;;;;;;;13.79;100.00;101700.19;4981730;28;20365;-67
2021/10/09 01:51:52;;;;;;;6.28;3.80;;;;;;;13.78;100.00;101702.00;4980875;28;20064;-69
2021/10/09 01:54:18;;;;;;;8.25;3.95;;;;;;;13.72;100.00;101689.19;4981093;28;20679;-69
2021/10/09 01:56:44;;;;;;;7.70;3.90;;;;;;;13.81;100.00;101698.13;4965542;28;20467;-70
2021/10/09 01:59:09;;;;;;;7.03;4.00;;;;;;;13.82;100.00;101694.41;4976316;28;20038;-71
2021/10/09 02:01:35;;;;;;;6.18;4.22;;;;;;;13.85;100.00;101702.19;4980642;28;20062;-70
2021/10/09 02:04:02;;;;;;;6.47;3.10;;;;;;;13.83;100.00;101702.34;4962680;28;20060;-69
2021/10/09 02:06:27;;;;;;;7.95;3.40;;;;;;;13.85;100.00;101700.31;4980300;28;20050;-70
2021/10/09 02:08:53;;;;;;;5.90;3.17;;;;;;;13.85;100.00;101697.59;4981172;28;20041;-70
2021/10/09 02:11:22;;;;;;;5.28;2.95;;;;;;;13.83;100.00;101699.63;4981225;28;20049;-69
2021/10/09 02:14:19;;;;;;;3.80;2.88;;;;;;;13.90;100.00;101698.97;4980610;28;20038;-67
2021/10/09 02:27:48;;;;;;;4.85;2.95;;;;;;;13.92;100.00;101707.72;4980994;28;20026;-69
2021/10/09 02:30:13;;;;;;;7.45;3.22;;;;;;;13.91;100.00;101706.03;4979418;28;20511;-69
2021/10/09 02:32:39;;;;;;;3.50;2.95;;;;;;;13.91;100.00;101712.28;4964916;28;20049;-68
2021/10/09 02:35:06;;;;;;;3.97;3.15;;;;;;;13.91;100.00;101714.16;4981116;28;20034;-69
2021/10/09 02:37:31;;;;;;;5.22;3.20;;;;;;;13.92;100.00;101711.28;4978701;28;20117;-69
2021/10/09 02:39:57;;;;;;;3.80;2.60;;;;;;;13.90;100.00;101716.03;4980741;28;20598;-68
2021/10/09 02:42:22;;;;;;;3.92;2.80;;;;;;;13.90;100.00;101718.72;4948503;28;20073;-69
2021/10/09 02:44:48;;;;;;;3.63;2.17;;;;;;;13.88;100.00;101699.13;4980525;28;20053;-69
2021/10/09 02:47:14;;;;;;;3.00;2.08;;;;;;;13.93;100.00;101718.38;4982868;28;20035;-69
2021/10/09 02:49:40;;;;;;;3.15;2.20;;;;;;;13.82;100.00;101695.25;4955256;28;20034;-71
2021/10/09 02:52:06;;;;;;;3.05;2.33;;;;;;;13.94;100.00;101727.31;4980343;28;22505;-70
2021/10/09 02:54:34;;;;;;;4.35;1.83;;;;;;;13.96;100.00;101723.41;4981308;28;20031;-67
2021/10/09 02:57:02;;;;;;;5.32;2.00;;;;;;;13.98;100.00;101734.06;4994828;28;20038;-69
2021/10/09 02:59:28;;;;;;;2.20;1.63;;;;;;;13.94;100.00;101719.19;4995290;28;20369;-70
2021/10/09 03:01:54;;;;;;;2.25;1.70;;;;;;;14.00;100.00;101729.34;4979734;28;20057;-68
2021/10/09 03:04:19;;;;;;;5.95;1.60;;;;;;;13.97;100.00;101735.06;4978793;28;20026;-69
2021/10/09 03:06:45;;;;;;;3.58;1.83;;;;;;;14.00;100.00;101732.88;4978520;28;20030;-67
2021/10/09 03:09:11;;;;;;;4.15;2.08;;;;;;;14.00;100.00;101732.88;4979676;28;20042;-69
2021/10/09 03:11:36;;;;;;;2.38;1.60;;;;;;;13.99;100.00;101720.34;4980917;28;20041;-67
2021/10/09 03:14:02;;;;;;;3.80;1.65;;;;;;;13.98;100.00;101717.84;4980679;28;20479;-69
2021/10/09 03:16:27;;;;;;;2.78;1.90;;;;;;;14.03;100.00;101726.28;4976841;28;20042;-68
2021/10/09 03:18:53;;;;;;;2.55;1.60;;;;;;;13.96;100.00;101714.47;4982038;28;20422;-70
2021/10/09 03:21:20;;;;;;;3.47;1.58;;;;;;;14.04;100.00;101739.59;4989106;28;20053;-68
2021/10/09 03:23:46;;;;;;;2.75;1.60;;;;;;;14.03;100.00;101729.00;4983290;28;20412;-66
2021/10/09 03:26:11;;;;;;;1.88;1.50;;;;;;;14.06;100.00;101736.75;4994448;28;20049;-70
2021/10/09 03:28:37;;;;;;;3.58;1.30;;;;;;;14.06;100.00;101739.44;4963774;28;20049;-70
2021/10/09 03:31:03;;;;;;;3.63;1.50;;;;;;;14.06;100.00;101740.28;4980646;28;20069;-68
2021/10/09 03:33:28;;;;;;;1.92;1.30;;;;;;;14.07;100.00;101739.25;4977402;28;20085;-70
2021/10/09 03:35:54;;;;;;;2.42;1.38;;;;;;;14.10;100.00;101748.88;4982554;28;20034;-67
2021/10/09 03:38:20;;;;;;;4.53;1.65;;;;;;;14.10;100.00;101748.88;4947953;28;20042;-68
2021/10/09 03:40:50;;;;;;;2.60;1.33;;;;;;;14.11;100.00;101744.34;4977421;28;20035;-71
2021/10/09 03:43:21;;;;;;;1.60;1.10;;;;;;;14.11;100.00;101747.03;4980073;28;20404;-69
2021/10/09 03:45:57;;;;;;;1.60;1.00;;;;;;;14.11;100.00;101745.19;4982022;28;20092;-68
2021/10/09 03:53:51;;;;;;;1.63;1.20;;;;;;;14.02;100.00;101736.22;4984090;28;20026;-66
2021/10/09 03:56:17;;;;;;;2.00;1.20;;;;;;;14.03;100.00;101750.63;4982257;28;20038;-71
2021/10/09 03:58:42;;;;;;;2.00;1.25;;;;;;;14.04;100.00;101749.59;4983224;28;20662;-67
2021/10/09 04:01:10;;;;;;;2.40;1.30;;;;;;;13.98;100.00;101729.50;4982898;28;20028;-69
2021/10/09 04:03:36;;;;;;;1.75;1.10;;;;;;;14.02;100.00;101752.47;4986322;28;20026;-69
2021/10/09 04:06:01;;;;;;;1.88;1.25;;;;;;;14.04;100.00;101757.69;5000276;28;20069;-67
2021/10/09 04:08:27;;;;;;;2.75;1.15;;;;;;;14.01;100.00;101745.38;4984769;28;20045;-68
2021/10/09 04:10:52;;;;;;;1.80;1.27;;;;;;;14.01;100.00;101758.91;4983258;28;20053;-69
2021/10/09 04:13:18;;;;;;;1.88;1.20;;;;;;;14.07;100.00;101757.34;4984613;28;20104;-68
2021/10/09 04:15:44;;;;;;;1.23;1.00;;;;;;;14.00;100.00;101759.94;4953589;28;20439;-68
2021/10/09 04:18:09;;;;;;;1.98;1.10;;;;;;;14.00;100.00;101757.22;4984349;28;20031;-69
2021/10/09 04:20:37;;;;;;;2.72;1.23;;;;;;;14.10;100.00;101764.28;4982242;28;20040;-69
2021/10/09 04:23:03;;;;;;;1.70;1.08;;;;;;;14.07;100.00;101760.06;4985081;28;20030;-68
2021/10/09 04:25:29;;;;;;;2.58;1.00;;;;;;;14.13;100.00;101772.03;4982603;28;20042;-68
2021/10/09 04:27:54;;;;;;;1.95;1.00;;;;;;;14.08;100.00;101769.88;4979789;28;20041;-70
2021/10/09 04:30:20;;;;;;;1.15;0.90;;;;;;;14.10;100.00;101780.50;4982828;28;20493;-68
2021/10/09 04:32:45;;;;;;;1.30;0.90;;;;;;;14.08;100.00;101778.00;4981323;28;20494;-68
2021/10/09 04:35:11;;;;;;;3.17;1.00;;;;;;;14.03;100.00;101777.66;4986946;28;20513;-68
2021/10/09 04:37:37;;;;;;;2.53;1.00;;;;;;;14.07;100.00;101793.34;4965566;28;20073;-69
2021/10/09 04:40:03;;;;;;;1.02;0.73;;;;;;;14.06;100.00;101802.50;4974470;28;20125;-71
2021/10/09 04:42:29;;;;;;;1.42;0.80;;;;;;;14.03;100.00;101802.84;4970642;28;20042;-68
2021/10/09 04:44:55;;;;;;;2.42;1.10;;;;;;;14.05;100.00;101806.22;4973728;28;20057;-70
2021/10/09 04:47:20;;;;;;;1.42;1.33;;;;;;;14.04;100.00;101809.09;4949055;28;20042;-66
2021/10/09 04:49:46;;;;;;;0.90;0.80;;;;;;;14.00;100.00;101808.59;4989913;28;20092;-70
2021/10/09 04:52:12;;;;;;;1.58;0.93;;;;;;;14.03;100.00;101812.81;4975828;28;20036;-71
2021/10/09 04:54:37;;;;;;;1.85;0.80;;;;;;;14.02;100.00;101817.34;4988381;28;20045;-69
2021/10/09 04:57:03;;;;;;;6.03;1.35;;;;;;;14.02;100.00;101822.75;4980130;28;20038;-68
2021/10/09 04:59:29;;;;;;;1.00;0.75;;;;;;;13.95;100.00;101821.78;4985096;28;20365;-66
2021/10/09 05:01:54;;;;;;;1.35;0.80;;;;;;;13.96;100.00;101830.75;4980421;28;20104;-69
2021/10/09 05:04:20;;;;;;;2.45;0.95;;;;;;;14.00;100.00;101840.22;4979020;28;20034;-66
2021/10/09 05:06:45;;;;;;;1.92;0.80;;;;;;;13.92;100.00;101827.53;4980775;28;20667;-67
2021/10/09 05:09:11;;;;;;;1.40;0.70;;;;;;;13.97;100.00;101851.34;4997765;28;20041;-70
2021/10/09 05:11:37;;;;;;;0.90;0.70;;;;;;;13.98;100.00;101847.66;4979346;28;20545;-67
2021/10/09 05:14:02;;;;;;;2.72;0.90;;;;;;;13.99;100.00;101857.44;4980964;28;20065;-67
2021/10/09 05:16:28;;;;;;;1.90;0.90;;;;;;;14.00;100.00;101849.16;4977911;28;20492;-70
2021/10/09 05:18:56;;;;;;;5.15;0.93;;;;;;;14.00;100.00;101846.47;4994807;28;20042;-67
2021/10/09 05:21:22;;;;;;;1.08;0.75;;;;;;;14.01;100.00;101852.69;4993620;28;20037;-68
2021/10/09 05:23:48;;;;;;;1.02;0.68;;;;;;;14.00;100.00;101857.28;4966144;28;20046;-69
2021/10/09 05:26:14;;;;;;;2.08;0.80;;;;;;;14.00;100.00;101859.97;4986499;28;20377;-70
2021/10/09 05:28:44;;;;;;;1.10;0.70;;;;;;;14.01;100.00;101858.94;4997983;28;20034;-69
2021/10/09 05:31:12;;;;;;;2.80;0.70;;;;;;;14.00;100.00;101868.09;4965458;28;20034;-67
2021/10/09 05:33:39;;;;;;;3.47;0.98;;;;;;;14.02;100.00;101867.91;4972085;28;20494;-71
2021/10/09 05:36:05;;;;;;;1.42;0.88;;;;;;;14.02;100.00;101874.16;4977283;28;20645;-72
2021/10/09 05:38:31;;;;;;;1.95;0.80;;;;;;;14.01;100.00;101871.63;4972630;28;20968;-68
2021/10/09 05:40:57;;;;;;;2.88;0.90;;;;;;;14.04;100.00;101879.41;4978339;28;20093;-69
2021/10/09 05:43:25;;;;;;;1.52;0.70;;;;;;;14.03;100.00;101880.44;4979977;28;20037;-68
2021/10/09 05:45:50;;;;;;;1.48;0.90;;;;;;;14.01;100.00;101875.16;4980647;28;20508;-72
2021/10/09 05:48:16;;;;;;;3.25;0.70;;;;;;;13.98;100.00;101864.69;4981717;28;20030;-69
2021/10/09 05:50:59;;;;;;;1.13;0.70;;;;;;;14.03;100.00;101872.31;4981040;28;20034;-72
2021/10/09 05:56:04;;;;;;;1.27;0.82;;;;;;;14.06;100.00;101880.91;4989416;28;20416;-69
2021/10/09 05:58:43;;;;;;;1.10;0.90;;;;;;;14.03;100.00;101883.97;4966731;28;20111;-71
2021/10/09 06:42:45;;;;;;;4.25;1.52;;;;;;;14.14;100.00;101949.53;4981834;28;20038;-70
2021/10/09 07:00:51;;;;;;;5.70;1.90;;;;;;;14.10;100.00;101977.94;4979292;28;20034;-71
2021/10/09 07:03:18;;;;;;;3.00;1.30;;;;;;;14.10;100.00;101996.88;4978109;28;20448;-70
2021/10/09 07:05:44;;;;;;;4.18;1.35;;;;;;;14.05;100.00;101991.94;4979761;28;20082;-69
2021/10/09 07:08:10;;;;;;;3.47;1.17;;;;;;;14.04;100.00;101995.69;4980125;28;20176;-69
2021/10/09 07:10:42;;;;;;;4.78;1.55;;;;;;;14.04;100.00;101992.97;4964782;28;20093;-69
2021/10/09 07:13:08;;;;;;;6.15;1.40;;;;;;;14.01;100.00;102001.44;4976148;28;20049;-67
2021/10/09 07:15:35;;;;;;;8.40;1.80;;;;;;;13.98;100.00;102010.72;4979006;28;21003;-68
2021/10/09 07:18:03;;;;;;;4.47;1.42;;;;;;;13.93;100.00;101999.56;4978033;28;20031;-71
2021/10/09 07:20:29;;;;;;;5.32;1.00;;;;;;;13.97;100.00;102013.59;4978271;28;20041;-68
2021/10/09 07:22:54;;;;;;;7.47;1.55;;;;;;;13.95;100.00;102007.53;4973319;28;20046;-68
2021/10/09 07:25:20;;;;;;;5.82;1.20;;;;;;;13.96;100.00;102015.44;4984836;28;20045;-69
2021/10/09 07:27:46;;;;;;;6.90;1.45;;;;;;;13.90;100.00;102024.25;4957817;28;20634;-68
2021/10/09 07:30:12;;;;;;;5.65;1.88;;;;;;;13.90;100.00;102026.94;4987548;28;20037;-70
2021/10/09 07:32:38;;;;;;;5.65;1.45;;;;;;;13.88;100.00;102030.81;4982932;28;20049;-69
2021/10/09 07:35:04;;;;;;;3.78;1.50;;;;;;;13.90;100.00;102026.94;4983283;28;20034;-68
2021/10/09 07:37:30;;;;;;;4.72;1.30;;;;;;;13.93;100.00;102032.00;4983547;28;20033;-72
2021/10/09 07:39:56;;;;;;;6.47;1.50;;;;;;;13.93;100.00;102028.47;4984721;28;20030;-69
2021/10/09 07:42:21;;;;;;;9.15;1.52;;;;;;;14.03;100.00;102048.09;4973100;28;20030;-68
2021/10/09 07:44:49;;;;;;;5.40;1.42;;;;;;;14.08;100.00;102038.47;4953611;28;20043;-69
2021/10/09 07:47:16;;;;;;;2.72;1.20;;;;;;;14.21;100.00;102042.50;4984146;28;20054;-68
2021/10/09 07:49:42;;;;;;;8.45;1.50;;;;;;;14.30;100.00;102052.34;4986803;28;20038;-68
2021/10/09 07:52:08;;;;;;;3.75;1.40;;;;;;;14.32;100.00;102044.06;4967416;28;20066;-68
2021/10/09 07:54:33;;;;;;;4.45;1.40;;;;;;;14.40;100.00;102055.72;4983055;28;20526;-67
2021/10/09 07:56:59;;;;;;;4.50;1.05;;;;;;;14.44;100.00;102056.22;4984521;28;20383;-69
2021/10/09 07:59:25;;;;;;;3.60;0.80;;;;;;;14.46;100.00;102055.03;4981019;28;20106;-67
2021/10/09 08:01:51;;;;;;;4.10;1.05;;;;;;;14.48;100.00;102063.00;4945353;28;20046;-69
2021/10/09 08:04:17;;;;;;;4.72;1.10;;;;;;;14.66;100.00;102068.22;4972229;28;20514;-69
2021/10/09 08:06:43;;;;;;;5.13;0.88;;;;;;;14.97;100.00;102067.53;4973534;28;20093;-67
2021/10/09 08:09:10;;;;;;;6.43;1.10;;;;;;;15.03;100.00;102069.53;4971525;28;20034;-68
2021/10/09 08:11:35;;;;;;;2.33;0.90;;;;;;;14.94;100.00;102077.69;4969995;28;20041;-68
2021/10/09 08:14:02;;;;;;;3.78;0.90;;;;;;;14.85;100.00;102083.31;4964789;28;20410;-70
2021/10/09 08:16:28;;;;;;;4.50;0.88;;;;;;;14.79;100.00;102097.50;4974432;28;20101;-68
2021/10/09 08:18:54;;;;;;;3.38;1.00;;;;;;;14.75;100.00;102105.13;4970734;28;20070;-73
2021/10/09 08:21:24;;;;;;;4.63;0.73;;;;;;;14.75;99.83;102094.31;4968607;28;20395;-70
2021/10/09 08:24:08;;;;;;;5.97;0.88;;;;;;;14.85;99.17;102107.66;4988115;28;20050;-70
2021/10/09 08:39:42;;;;;;;2.40;0.70;;;;;;;15.31;96.47;102118.75;4971700;28;20373;-68
2021/10/09 08:42:09;;;;;;;2.63;0.85;;;;;;;15.27;96.80;102118.25;4952760;28;20041;-68
2021/10/09 08:44:35;;;;;;;2.30;0.60;;;;;;;15.33;96.66;102116.72;4970752;28;20038;-69
2021/10/09 08:47:01;;;;;;;4.32;1.10;;;;;;;15.31;96.59;102116.88;4968806;28;20026;-68
2021/10/09 08:49:27;;;;;;;1.77;0.80;;;;;;;15.21;96.46;102127.06;4969675;28;20108;-69
2021/10/09 08:51:53;;;;;;;0.73;0.55;;;;;;;15.47;95.42;102128.69;4971969;28;20480;-67
2021/10/09 08:54:19;;;;;;;3.67;0.80;;;;;;;15.49;94.90;102129.38;4974902;28;20048;-70
2021/10/09 08:56:47;;;;;;;1.23;0.40;;;;;;;15.90;94.36;102134.63;4970074;28;20043;-68
2021/10/09 08:59:24;;;;;;;1.45;0.50;;;;;;;16.11;93.16;102145.69;4938045;28;20097;-68
2021/10/09 09:02:49;;;;;;;4.50;0.77;;;;;;;16.21;92.25;102140.88;4937279;28;20057;-68
2021/10/09 09:05:15;;;;;;;1.45;0.60;;;;;;;16.37;91.77;102145.38;4957797;28;20077;-67
2021/10/09 09:32:40;;;;;;;1.75;0.57;;;;;;;16.82;87.22;102194.47;4969339;28;20122;-69
2021/10/09 09:35:25;;;;;;;1.17;0.60;;;;;;;16.83;87.08;102191.56;4955078;28;20047;-66
2021/10/09 09:40:44;;;;;;;1.55;0.60;;;;;;;17.34;84.05;102212.69;4968062;28;20050;-69
2021/10/09 09:43:13;;;;;;;3.80;0.60;;;;;;;17.29;83.41;102204.25;4969626;28;20034;-67
2021/10/09 09:45:39;;;;;;;2.67;0.70;;;;;;;17.53;81.70;102208.56;4952977;28;20019;-67
2021/10/09 09:48:06;;;;;;;3.05;0.73;;;;;;;18.10;79.80;102212.50;4939563;28;20027;-67
2021/10/09 09:50:32;;;;;;;2.25;0.90;;;;;;;18.26;78.64;102212.31;4953551;28;20035;-69
2021/10/09 09:53:02;;;;;;;2.60;0.80;;;;;;;18.20;78.39;102213.06;4987143;28;20026;-69
2021/10/09 09:55:28;;;;;;;1.13;0.70;;;;;;;18.19;78.67;102216.81;4973609;28;20444;-67
2021/10/09 09:57:54;;;;;;;3.45;0.85;;;;;;;18.26;78.69;102223.19;4938873;28;20046;-67
2021/10/09 10:00:21;;;;;;;3.75;0.80;;;;;;;18.43;78.36;102230.09;4939328;28;20081;-70
2021/10/09 10:02:52;;;;;;;2.95;0.98;;;;;;;18.93;76.82;102226.66;4954881;28;20034;-69
2021/10/09 10:05:25;;;;;;;2.75;0.88;;;;;;;19.75;73.56;102229.63;4954902;28;20038;-68
2021/10/09 10:07:51;;;;;;;3.28;0.98;;;;;;;20.96;69.82;102233.63;4937393;28;20051;-69
2021/10/09 10:10:17;;;;;;;5.72;0.90;;;;;;;21.61;66.36;102228.34;4937954;28;20138;-70
2021/10/09 10:12:45;;;;;;;3.25;0.77;;;;;;;21.25;66.61;102232.38;4961441;28;20038;-67
2021/10/09 10:15:12;;;;;;;3.05;0.80;;;;;;;20.73;67.19;102231.28;4939435;28;20511;-66
2021/10/09 10:17:46;;;;;;;3.33;0.90;;;;;;;20.03;68.45;102246.97;4952406;28;20035;-71
2021/10/09 10:20:19;;;;;;;2.72;1.05;;;;;;;20.19;68.24;102247.50;4938338;28;20035;-69
2021/10/09 10:22:45;;;;;;;;;;;;;;;19.91;67.82;102250.28;4952653;28;20035;-65
2021/10/09 10:25:17;;;;;;;3.38;1.08;;;;;;;19.53;68.89;102245.19;4953170;28;19972;-67
2021/10/09 10:27:44;;;;;;;4.97;1.02;;;;;;;19.30;69.74;102252.78;4951149;28;20488;-67
2021/10/09 10:30:16;;;;;;;2.30;0.88;;;;;;;19.39;69.89;102261.66;4939475;28;20365;-70
2021/10/09 10:32:53;;;;;;;3.78;0.90;;;;;;;19.94;68.63;102266.25;4948314;28;20045;-68
2021/10/09 10:35:33;;;;;;;2.60;0.95;;;;;;;20.20;66.96;102264.72;4971665;28;20109;-68
2021/10/09 10:38:24;;;;;;;2.55;0.80;;;;;;;19.98;66.83;102269.44;4963314;28;20531;-66
2021/10/09 10:40:58;;;;;;;2.90;0.93;;;;;;;19.59;67.60;102276.28;4949570;28;22158;-68
2021/10/09 10:57:00;;;;;;;0.98;0.75;;;;;;;18.95;71.14;102292.72;4966981;28;20031;-67
2021/10/09 10:59:31;;;;;;;3.05;0.80;;;;;;;19.02;70.86;102291.72;4953925;28;20038;-68
2021/10/09 11:02:10;;;;;;;5.30;0.80;;;;;;;19.00;70.79;102279.34;4949342;28;20026;-65
2021/10/09 11:04:43;;;;;;;1.35;0.70;;;;;;;19.09;70.15;102287.19;4970648;28;20034;-70
2021/10/09 11:07:08;;;;;;;2.33;0.80;;;;;;;19.17;69.72;102291.69;4942660;28;20062;-66
2021/10/09 11:09:39;;;;;;;4.97;1.10;;;;;;;19.23;69.28;102290.06;4969167;28;20086;-64
2021/10/09 11:12:18;;;;;;;2.97;0.85;;;;;;;19.28;69.29;102293.88;4948895;28;20567;-65
2021/10/09 11:14:44;;;;;;;2.50;0.63;;;;;;;19.33;68.96;102291.41;4969969;28;20077;-68
2021/10/09 11:17:10;;;;;;;2.10;1.10;;;;;;;19.43;68.02;102298.41;4935371;28;20054;-70
2021/10/09 11:19:51;;;;;;;2.38;0.80;;;;;;;19.32;67.76;102295.19;4971084;28;20077;-69
2021/10/09 11:22:19;;;;;;;5.38;1.00;;;;;;;19.29;67.83;102292.84;4965091;28;20061;-71
2021/10/09 11:24:54;;;;;;;3.90;1.17;;;;;;;19.27;68.13;102289.47;4952296;28;20040;-66
2021/10/09 11:27:20;;;;;;;4.28;1.20;;;;;;;19.42;68.12;102288.53;4934590;28;20373;-66
2021/10/09 11:30:06;;;;;;;5.00;1.08;;;;;;;19.45;68.51;102299.03;4952248;28;20074;-67
2021/10/09 11:32:35;;;;;;;3.22;1.08;;;;;;;19.46;68.53;102295.28;4933036;29;20035;-68
2021/10/09 11:35:01;;;;;;;4.65;1.20;;;;;;;19.40;67.56;102287.91;4951154;28;20804;-69
2021/10/09 11:37:27;;;;;;;3.72;0.80;;;;;;;19.28;67.76;102293.88;4969516;28;20050;-65
2021/10/09 11:39:58;;;;;;;3.13;1.08;;;;;;;19.08;68.18;102290.97;4937038;28;20074;-65
2021/10/09 11:42:30;;;;;;;6.20;1.58;;;;;;;18.87;68.08;102312.78;4983153;28;20031;-65
2021/10/09 11:53:57;;;;;;;5.85;1.15;;;;;;;19.67;66.61;102308.91;4964848;28;20039;-65
2021/10/09 11:56:25;;;;;;;5.82;1.20;;;;;;;19.75;66.05;102314.22;4939937;28;20063;-67
2021/10/09 11:58:59;;;;;;;1.88;1.15;;;;;;;19.51;66.16;102315.47;4967648;28;20082;-67
2021/10/09 12:01:37;;;;;;;3.40;1.10;;;;;;;19.02;66.91;102318.16;4941199;28;20046;-67
2021/10/09 12:04:13;;;;;;;3.38;1.30;;;;;;;19.16;68.15;102311.81;4934059;28;20133;-67
2021/10/09 12:06:44;;;;;;;4.72;0.93;;;;;;;19.53;67.49;102323.47;4951337;28;20134;-66
2021/10/09 12:09:10;;;;;;;3.13;0.93;;;;;;;19.48;67.10;102315.03;4937830;28;20046;-67
2021/10/09 12:11:39;;;;;;;4.70;1.38;;;;;;;19.32;66.61;102310.72;4974227;28;20141;-66
2021/10/09 12:14:09;;;;;;;3.42;1.00;;;;;;;18.79;68.39;102323.81;4940827;28;20054;-69
2021/10/09 12:16:41;;;;;;;3.13;1.10;;;;;;;18.39;69.91;102318.69;4956575;28;20034;-70
2021/10/09 12:19:11;;;;;;;5.13;1.20;;;;;;;18.13;71.16;102327.31;4969145;28;20023;-67
2021/10/09 12:21:49;;;;;;;5.30;1.23;;;;;;;17.82;71.64;102323.91;4956670;28;20042;-67
2021/10/09 12:24:23;;;;;;;5.38;1.20;;;;;;;17.79;72.33;102322.41;4972923;28;20031;-69
2021/10/09 12:27:15;;;;;;;3.55;1.55;;;;;;;17.67;72.06;102324.69;4954607;28;20035;-69
2021/10/09 12:30:09;;;;;;;3.90;1.20;;;;;;;17.60;72.51;102323.75;4956884;28;20031;-67
2021/10/09 12:32:43;;;;;;;2.03;0.90;;;;;;;17.68;72.23;102333.72;4952179;28;20039;-69
2021/10/09 12:35:22;;;;;;;6.40;1.48;;;;;;;17.84;72.17;102340.91;4939971;28;20105;-69
2021/10/09 12:38:04;;;;;;;4.50;1.17;;;;;;;18.05;72.73;102340.16;4985745;28;20051;-67
2021/10/09 12:40:56;;;;;;;2.92;0.80;;;;;;;18.24;70.96;102342.34;4940263;28;20460;-67
2021/10/09 12:43:23;;;;;;;2.13;1.00;;;;;;;18.42;70.68;102344.69;4968274;28;20038;-66
2021/10/09 12:45:54;;;;;;;2.05;1.02;;;;;;;18.79;69.36;102351.88;4964916;28;20047;-68
2021/10/09 12:48:20;;;;;;;2.78;1.90;;;;;;;18.98;68.66;102361.31;4940621;28;20576;-67
2021/10/09 12:50:45;;;;;;;7.07;1.33;;;;;;;18.72;68.43;102350.94;4968267;28;20027;-67
2021/10/09 12:53:11;;;;;;;2.85;1.30;;;;;;;18.39;69.53;102347.75;4940227;28;20042;-66
2021/10/09 12:55:37;;;;;;;2.90;0.95;;;;;;;17.97;70.97;102349.28;4965875;28;20045;-66
2021/10/09 12:58:06;;;;;;;3.15;1.17;;;;;;;17.78;72.49;102350.59;4971132;28;20064;-67
2021/10/09 13:00:33;;;;;;;4.93;1.15;;;;;;;17.68;73.21;102344.59;4980452;28;20029;-66
2021/10/09 13:02:59;;;;;;;3.10;0.93;;;;;;;17.63;73.09;102345.16;4954331;28;20038;-67
2021/10/09 13:05:27;;;;;;;3.00;0.88;;;;;;;17.66;73.12;102349.38;4970967;28;20038;-67
2021/10/09 13:07:54;;;;;;;7.28;1.10;;;;;;;17.61;73.70;102347.19;4937918;28;20038;-66
2021/10/09 13:10:21;;;;;;;3.28;1.00;;;;;;;17.71;73.69;102352.41;4970017;28;20407;-66
2021/10/09 13:12:48;;;;;;;2.65;0.82;;;;;;;17.81;73.74;102350.28;4959398;28;20073;-68
2021/10/09 13:15:17;;;;;;;2.75;0.98;;;;;;;17.91;72.46;102350.84;4972608;28;20031;-65
2021/10/09 13:17:47;;;;;;;1.23;0.63;;;;;;;17.99;72.08;102342.63;4939140;28;20031;-66
2021/10/09 13:20:14;;;;;;;2.10;0.88;;;;;;;18.10;71.67;102352.19;4941113;28;20039;-66
2021/10/09 13:22:40;;;;;;;2.00;0.80;;;;;;;18.26;71.20;102351.19;4936924;28;20039;-65
2021/10/09 13:25:06;;;;;;;2.88;0.80;;;;;;;18.39;70.41;102362.25;4955557;28;20391;-69
2021/10/09 13:27:32;;;;;;;2.35;0.70;;;;;;;18.47;70.01;102361.31;4938035;28;20085;-66
2021/10/09 13:29:59;;;;;;;1.77;0.90;;;;;;;18.42;70.09;102367.31;4936550;28;20034;-65
2021/10/09 13:32:25;;;;;;;1.00;0.63;;;;;;;18.40;69.97;102369.38;4971559;28;20039;-69
2021/10/09 13:34:51;;;;;;;1.63;0.73;;;;;;;18.33;70.05;102362.97;4950673;28;20105;-67
2021/10/09 13:37:21;;;;;;;2.58;1.20;;;;;;;18.20;70.48;102354.63;4939050;28;20038;-66
2021/10/09 13:39:53;;;;;;;1.17;0.60;;;;;;;18.18;70.42;102364.88;4952865;28;20038;-66
2021/10/09 13:42:23;;;;;;;1.08;0.50;;;;;;;18.28;70.43;102361.84;4971245;28;20034;-67
2021/10/09 13:44:49;;;;;;;2.00;0.75;;;;;;;18.36;70.40;102356.31;4939873;28;20054;-66